This is the latest recevied weather packets stored in our database for station/object WD4HMR. If no packets are shown the sender has not sent any weather packets the latest 10 day(s).
| Time | Temp. | Humidity | Pressure | Rain* | Wind** | Luminosity | Snow |
|---|---|---|---|---|---|---|---|
| 1777985704 | 18.89° C | 68% | 1016 hPa | 0 mm | - | 214 W/m² | - |
| 1777985404 | 18.89° C | 69% | 1015.9 hPa | 0 mm | - | 197 W/m² | - |
| 1777984504 | 17.78° C | 71% | 1015.8 hPa | 0 mm | - | 148 W/m² | - |
| 1777984204 | 17.22° C | 71% | 1015.7 hPa | 0 mm | - | 133 W/m² | - |
| 1777983904 | 16.67° C | 72% | 1015.7 hPa | 0 mm | - | 118 W/m² | - |
| 1777980904 | 13.89° C | 82% | 1015 hPa | 0 mm | - | 28 W/m² | - |
| 1777980604 | 13.89° C | 82% | 1014.9 hPa | 0 mm | - | 21 W/m² | - |
| 1777979704 | 14.44° C | 81% | 1015 hPa | 0 mm | - | 12 W/m² | - |
| 1777978804 | 14.44° C | 80% | 1015 hPa | 0 mm | - | 5 W/m² | - |
| 1777977304 | 14.44° C | 80% | 1014.7 hPa | 0 mm | - | 0 W/m² | - |
| 1777977004 | 14.44° C | 80% | 1014.5 hPa | 0 mm | - | 0 W/m² | - |
| 1777975504 | 15.56° C | 76% | 1014.7 hPa | 0 mm | - | 0 W/m² | - |
| 1777975204 | 15.56° C | 75% | 1014.6 hPa | 0 mm | - | 0 W/m² | - |
| 1777973104 | 16.11° C | 73% | 1014.9 hPa | 0 mm | - | 0 W/m² | - |
| 1777971304 | 16.11° C | 72% | 1015 hPa | 0 mm | - | 0 W/m² | - |
| 1777971004 | 16.11° C | 72% | 1015.1 hPa | 0 mm | - | 0 W/m² | - |
| 1777969804 | 16.67° C | 71% | 1015.3 hPa | 0 mm | - | 0 W/m² | - |
| 1777969204 | 16.67° C | 70% | 1015.3 hPa | 0 mm | - | 0 W/m² | - |
| 1777968904 | 16.67° C | 70% | 1015.3 hPa | 0 mm | - | 0 W/m² | - |
| 1777966204 | 17.22° C | 68% | 1015.6 hPa | 0 mm | - | 0 W/m² | - |
| 1777965604 | 17.22° C | 66% | 1015.5 hPa | 0 mm | - | 0 W/m² | - |
| 1777964704 | 17.22° C | 65% | 1015.4 hPa | 0 mm | - | 0 W/m² | - |
| 1777964404 | 17.78° C | 64% | 1015.5 hPa | 0 mm | - | 0 W/m² | - |
| 1777963203 | 17.78° C | 61% | 1015.5 hPa | 0 mm | - | 0 W/m² | - |
| 1777962904 | 18.33° C | 60% | 1015.5 hPa | 0 mm | - | 0 W/m² | - |
* Rain latest hour (hover to see other rain measurements)
** Current wind speed in m/s (hover to see current wind gust speed)